Latest Weather Observations for Red Rocks Point

IDW60801

Issued at 7:22 am WST Monday 25 March 2019 (issued every 10 minutes, with the page automatically refreshed every 10 minutes)

About weather observations | Map of weather stations | Latest weather observations for WA | Other Formats
Station Details ID: 011053 Name: RED ROCKS POINT Lat: -32.20 Lon: 127.53 Height: 3.1 m
Data from the previous 72 hours. | See also: Recent months at Red Rocks Point
Date/Time
WST
Temp
°C
App
Temp
°C
Dew
Point
°C
Rel
Hum
%
Delta-T
°C
Wind Press
QNH
hPa
Press
MSL
hPa
Rain since
9am
mm
Dir  Spd
km/h
Gust
km/h
Spd
kts
Gust
kts
25/07:00am 18.0 13.6 8.8 55 4.7 SSE 22 30 12 16 1021.3 1021.3 0.0
25/06:30am 17.9 12.1 9.5 58 4.4 S 30 39 16 21 1020.7 1020.7 0.0
25/06:00am 17.9 12.3 10.0 60 4.2 S 30 37 16 20 1020.2 1020.2 0.0
25/05:30am 17.9 13.2 10.8 63 3.8 S 26 35 14 19 1019.9 1019.9 0.0
25/05:00am 17.5 13.1 8.9 57 4.4 S 22 32 12 17 1019.6 1019.6 0.0
25/04:30am 17.4 11.4 8.5 56 4.6 SSW 30 35 16 19 1019.2 1019.2 0.0
25/04:00am 17.5 11.5 8.6 56 4.6 SSW 30 37 16 20 1019.0 1019.0 0.0
25/03:30am 17.7 12.2 9.1 57 4.5 S 28 39 15 21 1018.3 1018.3 0.0
25/03:00am 17.7 11.8 9.1 57 4.5 SSW 30 43 16 23 1018.3 1018.3 0.0
25/02:30am 17.7 11.2 9.1 57 4.5 S 33 43 18 23 1017.9 1017.9 0.0
25/02:00am 17.4 11.0 8.5 56 4.6 SSW 32 43 17 23 1017.7 1017.7 0.0
25/01:30am 17.7 11.4 9.1 57 4.5 SSW 32 44 17 24 1017.8 1017.8 0.0
25/01:00am 17.9 11.5 9.3 57 4.5 SSW 33 44 18 24 1017.8 1017.8 0.0
25/12:30am 18.0 11.8 9.4 57 4.5 SSW 32 43 17 23 1017.8 1017.8 0.0
25/12:00am 17.9 12.1 9.5 58 4.4 SSW 30 39 16 21 1017.7 1017.7 0.0
 
Date/Time
WST
Temp
°C
App
Temp
°C
Dew
Point
°C
Rel
Hum
%
Delta-T
°C
Wind Press
QNH
hPa
Press
MSL
hPa
Rain since
9am
mm
Dir  Spd
km/h
Gust
km/h
Spd
kts
Gust
kts
24/11:30pm 17.7 11.7 8.6 55 4.7 SSW 30 41 16 22 1017.7 1017.7 0.0
24/11:00pm 17.8 12.0 8.1 53 4.9 SSW 28 39 15 21 1017.8 1017.8 0.0
24/10:30pm 18.1 11.8 8.9 55 4.8 SSW 32 41 17 22 1017.7 1017.7 0.0
24/10:00pm 18.2 12.4 9.5 57 4.6 SSW 30 43 16 23 1017.7 1017.7 0.0
24/09:30pm 17.9 12.0 10.3 61 4.1 SSW 32 43 17 23 1017.4 1017.4 0.0
24/09:00pm 17.8 13.1 9.2 57 4.5 SW 24 35 13 19 1017.4 1017.4 0.0
24/08:30pm 18.2 12.3 10.3 60 4.2 SSW 32 43 17 23 1016.9 1016.9 0.0
24/08:00pm 18.4 13.0 11.0 62 4.0 SW 30 43 16 23 1017.0 1017.0 0.0
24/07:30pm 18.3 12.8 10.7 61 4.1 SW 30 48 16 26 1017.0 1017.0 0.0
24/07:00pm 18.5 13.2 11.3 63 3.9 SSW 30 46 16 25 1016.6 1016.6 0.0
24/06:30pm 18.9 13.0 11.2 61 4.2 SW 33 44 18 24 1016.4 1016.4 0.0
24/06:05pm 19.0 14.2 11.8 63 4.0 SW 28 48 15 26 1016.1 1016.1 0.0
24/06:00pm 19.0 13.9 11.8 63 4.0 SW 30 43 16 23 1016.1 1016.1 0.0
24/05:30pm 19.1 13.6 11.9 63 4.0 SW 32 50 17 27 1015.7 1015.7 0.0
24/05:25pm 19.2 13.7 12.0 63 4.0 SW 32 50 17 27 1015.6 1015.6 0.0
24/05:00pm 19.6 14.5 13.1 66 3.7 SW 32 44 17 24 1015.2 1015.2 0.0
24/04:32pm 19.7 15.3 12.9 65 3.8 SW 28 48 15 26 1014.8 1014.8 0.0
24/04:30pm 19.9 15.7 13.6 67 3.6 SW 28 41 15 22 1014.8 1014.8 0.0
24/04:12pm 20.3 16.3 14.2 68 3.5 SW 28 46 15 25 1014.6 1014.6 0.0
24/04:00pm 20.4 16.1 14.3 68 3.5 SW 30 44 16 24 1014.4 1014.4 0.0
24/03:32pm 21.3 17.1 14.7 66 3.9 SW 30 48 16 26 1014.3 1014.3 0.0
24/03:30pm 21.1 16.1 13.3 61 4.5 WSW 32 48 17 26 1014.2 1014.2 0.0
24/03:07pm 22.1 18.1 14.2 61 4.6 WSW 28 50 15 27 1014.1 1014.1 0.0
24/03:00pm 22.7 18.5 13.5 56 5.3 WSW 28 44 15 24 1014.0 1014.0 0.0
24/02:30pm 23.1 18.8 13.3 54 5.7 WSW 28 41 15 22 1014.0 1014.0 0.0
24/02:00pm 23.4 18.7 13.3 53 5.8 WSW 30 43 16 23 1013.9 1013.9 0.0
24/01:30pm 23.4 18.9 12.7 51 6.1 WSW 28 39 15 21 1013.7 1013.7 0.0
24/01:00pm 22.1 17.2 12.4 54 5.5 WSW 30 46 16 25 1014.1 1014.1 0.0
24/12:30pm 23.0 17.6 12.3 51 6.1 WSW 32 46 17 25 1014.0 1014.0 0.0
24/12:19pm 22.8 17.6 13.3 55 5.5 WSW 33 54 18 29 1013.9 1013.9 0.0
24/12:00pm 23.0 18.3 13.2 54 5.7 WSW 30 46 16 25 1014.1 1014.1 0.0
24/11:30am 22.8 18.5 14.4 59 4.9 WSW 30 43 16 23 1014.5 1014.5 0.0
24/11:18am 22.8 18.5 14.4 59 4.9 WSW 30 48 16 26 1014.8 1014.8 0.0
24/11:00am 20.9 15.6 14.3 66 3.8 SW 35 50 19 27 1014.9 1014.9 0.0
24/10:30am 21.8 18.1 13.9 61 4.6 WSW 26 41 14 22 1014.9 1014.9 0.0
24/10:00am 22.3 19.2 14.4 61 4.6 WSW 24 43 13 23 1015.0 1015.0 0.0
24/09:30am 20.1 18.6 15.3 74 2.8 WSW 17 24 9 13 1015.1 1015.1 0.0
24/09:00am 20.3 18.0 14.2 68 3.5 WSW 19 28 10 15 1015.0 1015.0 1.8
24/08:30am 20.4 18.6 14.5 69 3.4 W 17 30 9 16 1015.0 1015.0 1.8
24/08:00am 20.2 19.8 16.2 78 2.4 W 13 24 7 13 1015.0 1015.0 1.8
24/07:30am 18.2 18.2 16.2 88 1.2 WNW 11 17 6 9 1014.8 1014.8 1.8
24/07:00am 17.3 17.3 16.2 93 0.7 NW 11 17 6 9 1014.9 1014.9 1.8
24/06:30am 16.3 16.3 15.3 94 0.6 NNW 9 13 5 7 1014.9 1014.9 1.8
24/06:00am 16.0 15.5 15.0 94 0.6 NW 11 15 6 8 1014.5 1014.5 1.8
24/05:30am 15.9 15.0 14.9 94 0.6 NW 13 17 7 9 1014.0 1014.0 1.8
24/05:00am 15.7 14.7 14.7 94 0.6 NW 13 17 7 9 1013.6 1013.6 1.8
24/04:30am 15.7 14.7 14.7 94 0.6 NW 13 15 7 8 1013.3 1013.3 1.8
24/04:00am 15.7 14.7 14.6 93 0.6 NW 13 15 7 8 1012.9 1012.9 1.8
24/03:30am 16.3 15.9 15.2 93 0.6 WNW 11 13 6 7 1012.5 1012.5 1.8
24/03:00am 16.8 17.0 15.7 93 0.6 WNW 9 11 5 6 1012.3 1012.3 1.8
24/02:30am 16.9 16.4 15.8 93 0.6 NW 13 15 7 8 1012.3 1012.3 1.8
24/02:00am 17.0 18.8 15.5 91 0.9 CALM 0 0 0 0 1012.2 1012.2 1.6
24/01:30am 17.9 19.0 16.6 92 0.8 NNE 6 7 3 4 1012.7 1012.7 1.6
24/01:00am 18.2 20.5 16.7 91 0.9 CALM 0 0 0 0 1013.3 1013.3 1.6
24/12:30am 18.2 19.1 16.7 91 0.9 SE 7 9 4 5 1013.8 1013.8 1.4
24/12:00am 18.4 18.0 17.1 92 0.8 S 15 17 8 9 1014.1 1014.1 0.6
 
Date/Time
WST
Temp
°C
App
Temp
°C
Dew
Point
°C
Rel
Hum
%
Delta-T
°C
Wind Press
QNH
hPa
Press
MSL
hPa
Rain since
9am
mm
Dir  Spd
km/h
Gust
km/h
Spd
kts
Gust
kts
23/11:30pm 18.7 17.9 17.0 90 1.0 S 17 20 9 11 1014.3 1014.3 0.0
23/11:00pm 18.8 19.1 15.9 83 1.7 NW 9 13 5 7 1014.5 1014.5 0.0
23/10:30pm 19.2 19.2 15.1 77 2.4 NNW 9 11 5 6 1014.9 1014.9 0.0
23/10:00pm 19.6 21.1 14.6 73 2.9 CALM 0 0 0 0 1015.0 1015.0 0.0
23/09:30pm 20.0 19.9 15.0 73 2.9 SE 9 11 5 6 1015.3 1015.3 0.0
23/09:00pm 20.1 19.3 15.1 73 2.9 SE 13 15 7 8 1015.4 1015.4 0.0
23/08:30pm 20.1 18.7 15.5 75 2.7 SE 17 20 9 11 1015.6 1015.6 0.0
23/08:00pm 20.0 18.0 15.6 76 2.6 SSE 20 22 11 12 1015.6 1015.6 0.0
23/07:30pm 20.4 19.1 15.8 75 2.7 SSE 17 19 9 10 1015.6 1015.6 0.0
23/07:00pm 20.4 19.1 15.8 75 2.7 SSE 17 20 9 11 1015.5 1015.5 0.0
23/06:30pm 20.3 18.7 15.9 76 2.6 SSE 19 20 10 11 1015.4 1015.4 0.0
23/06:00pm 20.5 18.4 16.1 76 2.6 SSE 22 28 12 15 1015.2 1015.2 0.0
23/05:30pm 20.6 18.4 16.0 75 2.8 SE 22 26 12 14 1015.0 1015.0 0.0
23/05:00pm 20.8 18.8 16.4 76 2.7 SSE 22 26 12 14 1014.8 1014.8 0.0
23/04:30pm 21.0 18.4 15.8 72 3.1 SSE 24 30 13 16 1014.6 1014.6 0.0
23/04:00pm 21.5 18.9 16.0 71 3.3 SSE 24 30 13 16 1014.2 1014.2 0.0
23/03:30pm 21.8 19.3 17.0 74 2.9 SSE 26 32 14 17 1014.2 1014.2 0.0
23/03:00pm 21.7 18.9 17.3 76 2.7 SSE 28 33 15 18 1014.0 1014.0 0.0
23/02:30pm 22.3 19.5 17.2 73 3.1 SSE 28 35 15 19 1014.2 1014.2 0.0
23/02:00pm 21.6 19.6 17.4 77 2.6 SSE 24 28 13 15 1014.4 1014.4 0.0
23/01:30pm 21.7 18.8 17.9 79 2.4 SSE 30 33 16 18 1014.4 1014.4 0.0
23/01:00pm 21.7 18.9 17.3 76 2.7 SSE 28 32 15 17 1014.3 1014.3 0.0
23/12:30pm 22.5 20.0 17.2 72 3.3 S 26 30 14 16 1014.8 1014.8 0.0
23/12:00pm 23.0 20.7 17.7 72 3.3 S 26 30 14 16 1015.2 1015.2 0.0
23/11:30am 21.9 19.0 17.1 74 2.9 S 28 33 15 18 1015.3 1015.3 0.0
23/11:00am 22.1 21.1 17.9 77 2.6 S 20 24 11 13 1015.6 1015.6 0.0
23/10:30am 21.6 19.8 17.0 75 2.8 S 22 26 12 14 1015.8 1015.8 0.0
23/10:00am 22.3 21.0 18.1 77 2.6 S 22 26 12 14 1015.7 1015.7 0.0
23/09:30am 21.8 19.6 17.8 78 2.5 SSE 26 30 14 16 1015.6 1015.6 0.0
23/09:00am 21.5 19.0 18.1 81 2.1 S 28 33 15 18 1015.3 1015.3 0.0
23/08:30am 21.2 18.4 18.2 83 1.9 S 30 37 16 20 1015.3 1015.3 0.0
23/08:00am 21.5 18.7 18.1 81 2.1 S 30 33 16 18 1015.0 1015.0 0.0
23/07:30am 21.5 19.0 18.1 81 2.1 S 28 35 15 19 1014.2 1014.2 0.0
23/07:00am 21.4 18.8 18.6 84 1.8 S 30 33 16 18 1013.5 1013.5 0.0
23/06:30am 21.2 19.0 18.6 85 1.6 S 28 35 15 19 1013.6 1013.6 0.0
23/06:00am 21.1 19.3 18.7 86 1.5 S 26 32 14 17 1012.8 1012.8 0.0
23/05:30am 21.1 20.2 19.0 88 1.3 SSW 22 28 12 15 1013.0 1013.0 0.0
23/05:00am 21.2 22.2 18.6 85 1.6 SSW 11 15 6 8 1013.0 1013.0 0.0
23/04:30am 21.3 21.5 18.5 84 1.8 S 15 17 8 9 1012.6 1012.6 0.0
23/04:00am 21.4 21.2 18.6 84 1.8 S 17 17 9 9 1012.4 1012.4 0.0
23/03:30am 21.3 21.2 18.7 85 1.6 S 17 20 9 11 1012.4 1012.4 0.0
23/03:00am 21.4 21.4 19.0 86 1.5 SSW 17 22 9 12 1012.6 1012.6 0.0
23/02:30am 21.4 21.5 19.1 87 1.5 SSW 17 20 9 11 1012.6 1012.6 0.0
23/02:00am 21.1 20.6 18.7 86 1.5 SSW 19 22 10 12 1012.1 1012.1 0.0
23/01:30am 21.2 21.6 18.9 87 1.4 SSW 15 20 8 11 1012.1 1012.1 0.0
23/01:00am 20.8 22.2 18.7 88 1.3 SSW 9 13 5 7 1012.0 1012.0 0.0
23/12:30am 21.1 22.2 18.9 87 1.4 S 11 15 6 8 1011.7 1011.7 0.0
23/12:00am 20.9 21.9 19.4 91 1.0 S 13 17 7 9 1011.4 1011.4 0.0
 
Date/Time
WST
Temp
°C
App
Temp
°C
Dew
Point
°C
Rel
Hum
%
Delta-T
°C
Wind Press
QNH
hPa
Press
MSL
hPa
Rain since
9am
mm
Dir  Spd
km/h
Gust
km/h
Spd
kts
Gust
kts
22/11:30pm 19.7 20.6 18.4 92 0.8 S 11 15 6 8 1011.3 1011.3 0.0
22/11:00pm 19.0 19.2 17.7 92 0.8 SW 13 15 7 8 1011.3 1011.3 0.0
22/10:30pm 19.0 20.8 17.5 91 0.9 NW 4 11 2 6 1011.7 1011.7 0.0
22/10:00pm 19.5 22.1 17.5 88 1.2 CALM 0 0 0 0 1011.9 1011.9 0.0
22/09:30pm 21.4 23.2 19.5 89 1.2 ENE 9 9 5 5 1011.6 1011.6 0.0
22/09:00pm 21.5 22.9 19.6 89 1.2 ESE 11 13 6 7 1011.5 1011.5 0.0
22/08:30pm 21.7 22.9 19.8 89 1.2 ESE 13 15 7 8 1011.4 1011.4 0.0
22/08:00pm 21.8 23.0 19.9 89 1.2 ESE 13 15 7 8 1011.3 1011.3 0.0
22/07:30pm 21.9 22.8 20.0 89 1.2 ESE 15 17 8 9 1011.1 1011.1 0.0
22/07:00pm 21.9 23.1 19.8 88 1.3 ESE 13 13 7 7 1010.9 1010.9 0.0
22/06:30pm 21.9 23.3 19.6 87 1.5 E 11 13 6 7 1010.6 1010.6 0.0
22/06:00pm 22.0 23.5 19.7 87 1.5 SE 11 13 6 7 1010.2 1010.2 0.0
22/05:30pm 22.3 23.7 19.5 84 1.8 ESE 11 11 6 6 1010.1 1010.1 0.0
22/05:00pm 23.0 24.3 19.4 80 2.3 ESE 11 11 6 6 1009.9 1009.9 0.0
22/04:30pm 23.6 25.1 19.7 79 2.5 ESE 11 15 6 8 1009.7 1009.7 0.0
22/04:00pm 23.6 24.6 19.5 78 2.6 E 13 15 7 8 1009.6 1009.6 0.0
22/03:30pm 24.4 25.6 19.9 76 2.9 ESE 13 15 7 8 1009.7 1009.7 0.0
22/03:00pm 23.7 24.3 19.4 77 2.8 ESE 15 17 8 9 1009.7 1009.7 0.0
22/02:30pm 23.8 24.5 19.7 78 2.6 E 15 17 8 9 1009.6 1009.6 0.0
22/02:00pm 23.3 23.3 19.7 80 2.3 E 19 20 10 11 1009.7 1009.7 0.0
22/01:30pm 23.6 23.9 19.7 79 2.5 ESE 17 20 9 11 1009.8 1009.8 0.0
22/01:00pm 23.6 23.9 19.7 79 2.5 E 17 20 9 11 1010.3 1010.3 0.0
22/12:30pm 23.2 22.5 19.6 80 2.3 ENE 22 26 12 14 1010.8 1010.8 0.0
22/12:00pm 23.1 23.0 19.5 80 2.3 E 19 20 10 11 1010.6 1010.6 0.0
22/11:30am 23.1 22.8 19.5 80 2.3 E 20 24 11 13 1011.1 1011.1 0.0
22/11:00am 23.2 22.9 19.6 80 2.3 E 20 22 11 12 1011.5 1011.5 0.0
22/10:30am 23.0 22.7 19.2 79 2.4 E 19 20 10 11 1011.7 1011.7 0.0
22/10:00am 23.0 22.8 19.4 80 2.3 E 19 20 10 11 1012.0 1012.0 0.0
22/09:30am 22.7 22.0 19.5 82 2.0 ENE 22 24 12 13 1012.3 1012.3 0.0
22/09:00am 22.2 21.4 19.2 83 1.9 ENE 22 26 12 14 1012.4 1012.4 0.0
22/08:30am 22.1 20.8 19.1 83 1.9 ENE 24 26 13 14 1012.5 1012.5 0.0
22/08:00am 21.8 20.5 19.0 84 1.8 E 24 28 13 15 1011.9 1011.9 0.0
22/07:30am 21.5 19.7 18.7 84 1.8 ENE 26 32 14 17 1012.1 1012.1 0.0

Other formats

Comma delimited format used in spreadsheet applications
http://www.bom.gov.au/fwo/IDW60801/IDW60801.94644.axf

JavaScript Object Notation format (JSON) in row-major order
http://www.bom.gov.au/fwo/IDW60801/IDW60801.94644.json

Data quality

Most of these data are generated automatically and are frequently updated. Quality checks on data are not normally performed. It is possible for incorrect values to appear. Refer to information at About Latest Weather Observations and please check the disclaimer before using these data.